Language selection

Features

My Weather Profile Weather Topics  | 

Explorer - northwestern half: Past 24 Hour Conditions

 

South Moresby - 46147

10:00 AM PST 13 November 2019Buoy position: 51.83N 131.23W
Disclaimer

This table is a summary of hourly weather conditions for the past 24 hours.
Please note that these observations might not always be representative of weather conditions over their associated marine area.

Date / Time
(PST)
Wind(knots) Wave height(m) Wave period(s) Pressure(kPa) Air tempC) Water tempC)
13 November 2019
10:00 SE 17 gust 23 2.3 11.0 101.5 11 10
9:00 SE 19 gust 23 2.3 10.0 101.6 11 10
8:00 SE 16 gust 19 2.3 11.0 101.6 11 10
7:00 SE 13 gust 17 2.4 11.0 101.6 11 10
6:00 SSE 13 gust 16 2.7 11.0 101.7 11 10
5:00 SSE 13 gust 17 2.9 11.0 101.7 11 10
4:00 SSE 13 gust 16 2.6 10.0 101.8 11 10
3:00 SSE 12 gust 13 2.9 8.0 101.8 11 10
2:00 SSE 12 gust 16 2.8 11.0 101.8 11 10
1:00 SSE 12 gust 13 2.8 12.0 101.8 11 10
0:00 S 12 gust 13 2.9 12.0 101.8 11 10
12 November 2019
23:00 SSE 10 gust 12 2.9 11.0 101.8 11 9
22:00 S 8 gust 10 3.0 12.0 101.8 11 9
21:00 S 8 gust 12 3.1 10.0 101.8 11 10
20:00 SSW 10 gust 12 3.1 12.0 101.7 11 9
19:00 SSW 8 gust 12 3.2 12.0 101.7 11 10
18:00 SSW 12 gust 16 3.3 10.0 101.7 11 10
17:00 SW 8 gust 10 3.4 12.0 101.6 11 10
16:00 SSW 8 gust 12 3.5 12.0 101.6 11 10
15:00 SW 12 gust 16 3.5 11.0 101.6 11 10
14:00 SW 16 gust 22 3.6 12.0 101.5 11 10
13:00 SW 13 gust 17 3.9 12.0 101.4 11 10
12:00 SW 16 gust 19 3.7 10.0 101.4 11 10
11:00 SW 12 gust 16 3.7 11.0 101.4 11 10
10:00 SW 16 gust 19 3.8 13.0 101.3 11 10

Zoom-in to make a selection

Map of Pacific - North Coast marine weather areas Middle Nomad - 46004 South Nomad - 46036 Dixon Entrance Central - 46145 South Moresby - 46147 Nanakwa Shoal - 46181 North Hecate Strait - 46183 North Nomad - 46184 South Hecate Strait - 46185 West Sea Otter - 46204 West Dixon Entrance - 46205 East Dellwood - 46207 West Moresby - 46208 Sartine Island Cape St.James Kindakun Rocks Langara Island Masset Municipal Airport Rose Spit Sandspit Airport Bella Bella Airport Bella Coola Airport Bonilla Island Cathedral Point Cumshewa Island Grey Islet Holland Rock Lucy Islands Lightstation Prince Rupert Airport
Legend:
buoy Buoy
land station Land Station

Pacific - North Coast Area

Another Region

What we are doing

Date modified: